Madero, Texas
Current Conditions -  °F | °C
As of 5:53 PM on Sunday 21 Dec 2014 (Local Time) from KMFE Reporting Station
Overcast Overcast  
Wind Chill: 62°   Ceiling: 4100
Heat Index: 62°   Visibility: 9mi
Dew Point: 56°   Wind: 5mph
Humidity: 80%   Direction: 50°NE
Pressure: 29.93"   Gusts: NA
Location:  26.2167°N, 98.325°W
Report Text: KMFE 212353Z 05004KT 9SM OVC041 17/13 A2993 RMK AO2 SLP134 T01670133 10167 20144 58010
Loading
Personal Weather Stations






























Interactive Weather Map New forecast layout! Learn more

10-Day Weather Forecast

Advertisements
Track Severe Weather on mobile